sensor_id;sensor_type;location;lat;lon;timestamp;pressure;altitude;pressure_sealevel;temperature;humidity
42633;BME280;28261;53.304;-6.284;2023-05-03T00:00:46;101950.09;;;10.24;100.00
42633;BME280;28261;53.304;-6.284;2023-05-03T00:02:50;101952.88;;;10.21;100.00
42633;BME280;28261;53.304;-6.284;2023-05-03T00:04:55;101961.03;;;10.16;100.00
42633;BME280;28261;53.304;-6.284;2023-05-03T00:07:02;101955.81;;;10.15;100.00
42633;BME280;28261;53.304;-6.284;2023-05-03T00:09:06;101959.38;;;10.14;100.00
42633;BME280;28261;53.304;-6.284;2023-05-03T00:11:12;101957.72;;;10.11;100.00
42633;BME280;28261;53.304;-6.284;2023-05-03T00:13:16;101958.69;;;10.10;100.00
42633;BME280;28261;53.304;-6.284;2023-05-03T00:15:19;101962.25;;;10.09;100.00
42633;BME280;28261;53.304;-6.284;2023-05-03T00:17:25;101964.03;;;10.09;100.00
42633;BME280;28261;53.304;-6.284;2023-05-03T00:19:29;101968.75;;;10.02;100.00
42633;BME280;28261;53.304;-6.284;2023-05-03T00:21:34;101966.22;;;9.99;100.00
42633;BME280;28261;53.304;-6.284;2023-05-03T00:23:38;101971.41;;;10.02;100.00
42633;BME280;28261;53.304;-6.284;2023-05-03T00:25:42;101971.25;;;10.05;100.00
42633;BME280;28261;53.304;-6.284;2023-05-03T00:27:47;101966.03;;;10.04;100.00
42633;BME280;28261;53.304;-6.284;2023-05-03T00:29:51;101971.41;;;10.02;100.00
42633;BME280;28261;53.304;-6.284;2023-05-03T00:31:55;101963.31;;;10.05;100.00
42633;BME280;28261;53.304;-6.284;2023-05-03T00:34:03;101970.94;;;10.13;100.00
42633;BME280;28261;53.304;-6.284;2023-05-03T00:36:08;101967.00;;;10.22;100.00
42633;BME280;28261;53.304;-6.284;2023-05-03T00:38:13;101974.38;;;10.34;100.00
42633;BME280;28261;53.304;-6.284;2023-05-03T00:40:17;101962.72;;;10.38;100.00
42633;BME280;28261;53.304;-6.284;2023-05-03T00:42:21;101970.00;;;10.33;100.00
42633;BME280;28261;53.304;-6.284;2023-05-03T00:44:26;101957.88;;;10.27;100.00
42633;BME280;28261;53.304;-6.284;2023-05-03T00:46:30;101955.31;;;10.26;100.00
42633;BME280;28261;53.304;-6.284;2023-05-03T00:48:34;101952.88;;;10.21;100.00
42633;BME280;28261;53.304;-6.284;2023-05-03T00:50:40;101954.00;;;10.15;100.00
42633;BME280;28261;53.304;-6.284;2023-05-03T00:52:44;101948.84;;;10.12;100.00
42633;BME280;28261;53.304;-6.284;2023-05-03T00:54:48;101949.78;;;10.11;100.00
42633;BME280;28261;53.304;-6.284;2023-05-03T00:56:53;101955.16;;;10.10;100.00
42633;BME280;28261;53.304;-6.284;2023-05-03T00:58:58;101950.66;;;10.12;100.00
42633;BME280;28261;53.304;-6.284;2023-05-03T01:01:03;101954.81;;;10.18;100.00
42633;BME280;28261;53.304;-6.284;2023-05-03T01:03:07;101949.25;;;10.24;100.00
42633;BME280;28261;53.304;-6.284;2023-05-03T01:05:12;101944.72;;;10.26;100.00
42633;BME280;28261;53.304;-6.284;2023-05-03T01:07:24;101942.72;;;10.31;100.00
42633;BME280;28261;53.304;-6.284;2023-05-03T01:09:37;101947.75;;;10.37;100.00
42633;BME280;28261;53.304;-6.284;2023-05-03T01:11:47;101946.59;;;10.43;100.00
42633;BME280;28261;53.304;-6.284;2023-05-03T01:13:57;101942.75;;;10.50;100.00
42633;BME280;28261;53.304;-6.284;2023-05-03T01:16:10;101939.09;;;10.53;100.00
42633;BME280;28261;53.304;-6.284;2023-05-03T01:18:19;101941.75;;;10.53;100.00
42633;BME280;28261;53.304;-6.284;2023-05-03T01:20:25;101937.22;;;10.55;100.00
42633;BME280;28261;53.304;-6.284;2023-05-03T01:22:41;101929.34;;;10.53;100.00
42633;BME280;28261;53.304;-6.284;2023-05-03T01:24:50;101946.91;;;10.56;100.00
42633;BME280;28261;53.304;-6.284;2023-05-03T01:26:59;101938.03;;;10.57;100.00
42633;BME280;28261;53.304;-6.284;2023-05-03T01:29:03;101933.56;;;10.57;100.00
42633;BME280;28261;53.304;-6.284;2023-05-03T01:31:08;101945.00;;;10.58;100.00
42633;BME280;28261;53.304;-6.284;2023-05-03T01:33:19;101929.91;;;10.60;100.00
42633;BME280;28261;53.304;-6.284;2023-05-03T01:35:29;101930.47;;;10.66;100.00
42633;BME280;28261;53.304;-6.284;2023-05-03T01:37:38;101925.25;;;10.65;100.00
42633;BME280;28261;53.304;-6.284;2023-05-03T01:39:47;101922.81;;;10.60;100.00
42633;BME280;28261;53.304;-6.284;2023-05-03T01:41:54;101920.38;;;10.56;100.00
42633;BME280;28261;53.304;-6.284;2023-05-03T01:44:02;101925.84;;;10.53;100.00
42633;BME280;28261;53.304;-6.284;2023-05-03T01:46:07;101922.22;;;10.54;100.00
42633;BME280;28261;53.304;-6.284;2023-05-03T01:48:13;101924.13;;;10.52;100.00
42633;BME280;28261;53.304;-6.284;2023-05-03T01:50:18;101917.25;;;10.47;100.00
42633;BME280;28261;53.304;-6.284;2023-05-03T01:52:22;101922.69;;;10.44;100.00
42633;BME280;28261;53.304;-6.284;2023-05-03T01:54:26;101921.13;;;10.40;100.00
42633;BME280;28261;53.304;-6.284;2023-05-03T01:56:33;101915.16;;;10.35;100.00
42633;BME280;28261;53.304;-6.284;2023-05-03T01:58:38;101914.41;;;10.31;100.00
42633;BME280;28261;53.304;-6.284;2023-05-03T02:00:43;101911.75;;;10.31;100.00
42633;BME280;28261;53.304;-6.284;2023-05-03T02:02:47;101911.69;;;10.33;100.00
42633;BME280;28261;53.304;-6.284;2023-05-03T02:04:52;101906.47;;;10.31;100.00
42633;BME280;28261;53.304;-6.284;2023-05-03T02:06:56;101907.34;;;10.32;100.00
42633;BME280;28261;53.304;-6.284;2023-05-03T02:09:00;101910.91;;;10.31;100.00
42633;BME280;28261;53.304;-6.284;2023-05-03T02:11:04;101910.84;;;10.32;100.00
42633;BME280;28261;53.304;-6.284;2023-05-03T02:13:09;101907.22;;;10.35;100.00
42633;BME280;28261;53.304;-6.284;2023-05-03T02:15:13;101905.47;;;10.34;100.00
42633;BME280;28261;53.304;-6.284;2023-05-03T02:17:21;101901.97;;;10.33;100.00
42633;BME280;28261;53.304;-6.284;2023-05-03T02:19:28;101906.34;;;10.35;100.00
42633;BME280;28261;53.304;-6.284;2023-05-03T02:21:33;101908.72;;;10.41;100.00
42633;BME280;28261;53.304;-6.284;2023-05-03T02:23:37;101908.34;;;10.48;100.00
42633;BME280;28261;53.304;-6.284;2023-05-03T02:25:42;101906.19;;;10.57;100.00
42633;BME280;28261;53.304;-6.284;2023-05-03T02:27:47;101902.31;;;10.64;100.00
42633;BME280;28261;53.304;-6.284;2023-05-03T02:29:51;101906.44;;;10.70;100.00
42633;BME280;28261;53.304;-6.284;2023-05-03T02:31:55;101906.28;;;10.73;100.00
42633;BME280;28261;53.304;-6.284;2023-05-03T02:34:01;101900.88;;;10.76;100.00
42633;BME280;28261;53.304;-6.284;2023-05-03T02:36:06;101897.13;;;10.80;100.00
42633;BME280;28261;53.304;-6.284;2023-05-03T02:38:10;101901.38;;;10.82;100.00
42633;BME280;28261;53.304;-6.284;2023-05-03T02:40:15;101889.16;;;10.80;100.00
42633;BME280;28261;53.304;-6.284;2023-05-03T02:42:21;101899.13;;;10.75;100.00
42633;BME280;28261;53.304;-6.284;2023-05-03T02:44:26;101895.00;;;10.69;100.00
42633;BME280;28261;53.304;-6.284;2023-05-03T02:46:31;101892.47;;;10.66;100.00
42633;BME280;28261;53.304;-6.284;2023-05-03T02:48:36;101897.16;;;10.61;100.00
42633;BME280;28261;53.304;-6.284;2023-05-03T02:50:41;101892.13;;;10.55;100.00
42633;BME280;28261;53.304;-6.284;2023-05-03T02:52:45;101888.22;;;10.44;100.00
42633;BME280;28261;53.304;-6.284;2023-05-03T02:54:49;101885.84;;;10.38;100.00
42633;BME280;28261;53.304;-6.284;2023-05-03T02:56:54;101892.34;;;10.31;100.00
42633;BME280;28261;53.304;-6.284;2023-05-03T02:58:58;101897.16;;;10.23;100.00
42633;BME280;28261;53.304;-6.284;2023-05-03T03:01:03;101893.72;;;10.21;100.00
42633;BME280;28261;53.304;-6.284;2023-05-03T03:03:08;101893.84;;;10.18;100.00
42633;BME280;28261;53.304;-6.284;2023-05-03T03:05:12;101893.06;;;10.15;100.00
42633;BME280;28261;53.304;-6.284;2023-05-03T03:07:23;101892.28;;;10.13;100.00
42633;BME280;28261;53.304;-6.284;2023-05-03T03:09:30;101886.69;;;10.20;100.00
42633;BME280;28261;53.304;-6.284;2023-05-03T03:11:36;101904.03;;;10.27;100.00
42633;BME280;28261;53.304;-6.284;2023-05-03T03:13:42;101892.16;;;10.36;100.00
42633;BME280;28261;53.304;-6.284;2023-05-03T03:15:46;101889.31;;;10.40;100.00
42633;BME280;28261;53.304;-6.284;2023-05-03T03:17:52;101889.22;;;10.42;100.00
42633;BME280;28261;53.304;-6.284;2023-05-03T03:19:59;101892.88;;;10.39;100.00
42633;BME280;28261;53.304;-6.284;2023-05-03T03:22:07;101885.00;;;10.38;100.00
42633;BME280;28261;53.304;-6.284;2023-05-03T03:24:12;101893.81;;;10.38;100.00
42633;BME280;28261;53.304;-6.284;2023-05-03T03:26:17;101880.56;;;10.38;100.00
42633;BME280;28261;53.304;-6.284;2023-05-03T03:28:21;101886.78;;;10.37;100.00
42633;BME280;28261;53.304;-6.284;2023-05-03T03:30:25;101877.81;;;10.40;100.00
42633;BME280;28261;53.304;-6.284;2023-05-03T03:32:41;101881.97;;;10.45;100.00
42633;BME280;28261;53.304;-6.284;2023-05-03T03:34:50;101869.44;;;10.49;100.00
42633;BME280;28261;53.304;-6.284;2023-05-03T03:36:54;101877.41;;;10.49;100.00
42633;BME280;28261;53.304;-6.284;2023-05-03T03:38:59;101885.44;;;10.47;100.00
42633;BME280;28261;53.304;-6.284;2023-05-03T03:41:04;101874.66;;;10.50;100.00
42633;BME280;28261;53.304;-6.284;2023-05-03T03:43:09;101868.44;;;10.52;100.00
42633;BME280;28261;53.304;-6.284;2023-05-03T03:45:13;101873.25;;;10.43;100.00
42633;BME280;28261;53.304;-6.284;2023-05-03T03:47:17;101866.38;;;10.39;100.00
42633;BME280;28261;53.304;-6.284;2023-05-03T03:49:21;101867.50;;;10.33;100.00
42633;BME280;28261;53.304;-6.284;2023-05-03T03:51:24;101874.66;;;10.31;100.00
42633;BME280;28261;53.304;-6.284;2023-05-03T03:53:29;101867.47;;;10.35;100.00
42633;BME280;28261;53.304;-6.284;2023-05-03T03:55:33;101860.16;;;10.40;100.00
42633;BME280;28261;53.304;-6.284;2023-05-03T03:57:38;101866.22;;;10.42;100.00
42633;BME280;28261;53.304;-6.284;2023-05-03T03:59:42;101866.06;;;10.45;100.00
42633;BME280;28261;53.304;-6.284;2023-05-03T04:01:46;101862.34;;;10.49;100.00
42633;BME280;28261;53.304;-6.284;2023-05-03T04:03:50;101861.19;;;10.55;100.00
42633;BME280;28261;53.304;-6.284;2023-05-03T04:05:54;101856.75;;;10.56;100.00
42633;BME280;28261;53.304;-6.284;2023-05-03T04:07:57;101847.72;;;10.60;100.00
42633;BME280;28261;53.304;-6.284;2023-05-03T04:10:04;101853.00;;;10.60;100.00
42633;BME280;28261;53.304;-6.284;2023-05-03T04:12:09;101855.94;;;10.54;100.00
42633;BME280;28261;53.304;-6.284;2023-05-03T04:14:16;101860.31;;;10.55;100.00
42633;BME280;28261;53.304;-6.284;2023-05-03T04:16:20;101853.16;;;10.57;100.00
42633;BME280;28261;53.304;-6.284;2023-05-03T04:18:24;101858.16;;;10.63;100.00
42633;BME280;28261;53.304;-6.284;2023-05-03T04:20:30;101857.88;;;10.69;100.00
42633;BME280;28261;53.304;-6.284;2023-05-03T04:22:36;101850.50;;;10.74;100.00
42633;BME280;28261;53.304;-6.284;2023-05-03T04:24:40;101861.94;;;10.76;100.00
42633;BME280;28261;53.304;-6.284;2023-05-03T04:26:45;101860.19;;;10.75;100.00
42633;BME280;28261;53.304;-6.284;2023-05-03T04:28:55;101847.81;;;10.76;100.00
42633;BME280;28261;53.304;-6.284;2023-05-03T04:31:00;101864.50;;;10.78;100.00
42633;BME280;28261;53.304;-6.284;2023-05-03T04:33:07;101867.31;;;10.75;100.00
42633;BME280;28261;53.304;-6.284;2023-05-03T04:35:11;101860.28;;;10.74;100.00
42633;BME280;28261;53.304;-6.284;2023-05-03T04:37:19;101871.72;;;10.74;100.00
42633;BME280;28261;53.304;-6.284;2023-05-03T04:39:23;101869.09;;;10.74;100.00
42633;BME280;28261;53.304;-6.284;2023-05-03T04:41:28;101863.78;;;10.74;100.00
42633;BME280;28261;53.304;-6.284;2023-05-03T04:43:33;101870.88;;;10.74;100.00
42633;BME280;28261;53.304;-6.284;2023-05-03T04:45:37;101875.47;;;10.70;100.00
42633;BME280;28261;53.304;-6.284;2023-05-03T04:47:47;101867.91;;;10.62;100.00
42633;BME280;28261;53.304;-6.284;2023-05-03T04:49:51;101875.22;;;10.57;100.00
42633;BME280;28261;53.304;-6.284;2023-05-03T04:51:55;101880.38;;;10.60;100.00
42633;BME280;28261;53.304;-6.284;2023-05-03T04:54:00;101875.00;;;10.62;100.00
42633;BME280;28261;53.304;-6.284;2023-05-03T04:56:05;101874.06;;;10.63;100.00
42633;BME280;28261;53.304;-6.284;2023-05-03T04:58:12;101875.94;;;10.61;100.00
42633;BME280;28261;53.304;-6.284;2023-05-03T05:00:17;101868.13;;;10.58;100.00
42633;BME280;28261;53.304;-6.284;2023-05-03T05:02:27;101874.50;;;10.54;100.00
42633;BME280;28261;53.304;-6.284;2023-05-03T05:04:34;101876.38;;;10.52;100.00
42633;BME280;28261;53.304;-6.284;2023-05-03T05:06:39;101867.63;;;10.49;100.00
42633;BME280;28261;53.304;-6.284;2023-05-03T05:08:49;101874.66;;;10.50;100.00
42633;BME280;28261;53.304;-6.284;2023-05-03T05:10:54;101879.03;;;10.52;100.00
42633;BME280;28261;53.304;-6.284;2023-05-03T05:13:03;101878.72;;;10.58;100.00
42633;BME280;28261;53.304;-6.284;2023-05-03T05:15:08;101873.22;;;10.62;100.00
42633;BME280;28261;53.304;-6.284;2023-05-03T05:17:14;101874.88;;;10.65;100.00
42633;BME280;28261;53.304;-6.284;2023-05-03T05:19:18;101873.13;;;10.64;100.00
42633;BME280;28261;53.304;-6.284;2023-05-03T05:21:24;101873.22;;;10.62;100.00
42633;BME280;28261;53.304;-6.284;2023-05-03T05:23:28;101881.94;;;10.64;100.00
42633;BME280;28261;53.304;-6.284;2023-05-03T05:25:33;101880.94;;;10.67;100.00
42633;BME280;28261;53.304;-6.284;2023-05-03T05:27:37;101883.38;;;10.72;100.00
42633;BME280;28261;53.304;-6.284;2023-05-03T05:29:42;101881.34;;;10.77;100.00
42633;BME280;28261;53.304;-6.284;2023-05-03T05:31:46;101888.22;;;10.81;100.00
42633;BME280;28261;53.304;-6.284;2023-05-03T05:33:52;101891.59;;;10.84;100.00
42633;BME280;28261;53.304;-6.284;2023-05-03T05:35:57;101887.69;;;10.92;100.00
42633;BME280;28261;53.304;-6.284;2023-05-03T05:38:03;101888.31;;;10.97;100.00
42633;BME280;28261;53.304;-6.284;2023-05-03T05:40:09;101887.22;;;11.01;100.00
42633;BME280;28261;53.304;-6.284;2023-05-03T05:42:19;101886.13;;;11.05;100.00
42633;BME280;28261;53.304;-6.284;2023-05-03T05:44:23;101895.50;;;11.12;100.00
42633;BME280;28261;53.304;-6.284;2023-05-03T05:46:28;101892.53;;;11.18;100.00
42633;BME280;28261;53.304;-6.284;2023-05-03T05:48:33;101894.41;;;11.16;100.00
42633;BME280;28261;53.304;-6.284;2023-05-03T05:50:37;101891.66;;;11.18;100.00
42633;BME280;28261;53.304;-6.284;2023-05-03T05:52:44;101893.47;;;11.17;100.00
42633;BME280;28261;53.304;-6.284;2023-05-03T05:54:50;101901.59;;;11.14;100.00
42633;BME280;28261;53.304;-6.284;2023-05-03T05:56:57;101894.56;;;11.13;100.00
42633;BME280;28261;53.304;-6.284;2023-05-03T05:59:04;101899.31;;;11.07;100.00
42633;BME280;28261;53.304;-6.284;2023-05-03T06:01:10;101905.50;;;11.07;100.00
42633;BME280;28261;53.304;-6.284;2023-05-03T06:03:16;101900.81;;;11.12;100.00
42633;BME280;28261;53.304;-6.284;2023-05-03T06:05:23;101903.16;;;11.18;100.00
42633;BME280;28261;53.304;-6.284;2023-05-03T06:07:28;101897.69;;;11.22;100.00
42633;BME280;28261;53.304;-6.284;2023-05-03T06:09:32;101903.00;;;11.22;100.00
42633;BME280;28261;53.304;-6.284;2023-05-03T06:11:40;101899.41;;;11.23;100.00
42633;BME280;28261;53.304;-6.284;2023-05-03T06:13:45;101899.50;;;11.21;100.00
42633;BME280;28261;53.304;-6.284;2023-05-03T06:15:51;101910.03;;;11.23;100.00
42633;BME280;28261;53.304;-6.284;2023-05-03T06:17:56;101898.31;;;11.27;100.00
42633;BME280;28261;53.304;-6.284;2023-05-03T06:20:00;101893.00;;;11.27;100.00
42633;BME280;28261;53.304;-6.284;2023-05-03T06:22:07;101899.63;;;11.35;100.00
42633;BME280;28261;53.304;-6.284;2023-05-03T06:24:13;101894.69;;;11.45;100.00
42633;BME280;28261;53.304;-6.284;2023-05-03T06:26:26;101898.69;;;11.54;100.00
42633;BME280;28261;53.304;-6.284;2023-05-03T06:28:33;101886.72;;;11.63;100.00
42633;BME280;28261;53.304;-6.284;2023-05-03T06:30:37;101886.78;;;11.61;100.00
42633;BME280;28261;53.304;-6.284;2023-05-03T06:32:46;101885.84;;;11.62;100.00
42633;BME280;28261;53.304;-6.284;2023-05-03T06:34:52;101891.00;;;11.65;100.00
42633;BME280;28261;53.304;-6.284;2023-05-03T06:36:56;101891.53;;;11.72;100.00
42633;BME280;28261;53.304;-6.284;2023-05-03T06:39:01;101889.69;;;11.74;100.00
42633;BME280;28261;53.304;-6.284;2023-05-03T06:41:05;101883.69;;;11.87;99.45
42633;BME280;28261;53.304;-6.284;2023-05-03T06:43:09;101881.56;;;11.93;98.64
42633;BME280;28261;53.304;-6.284;2023-05-03T06:45:24;101886.19;;;11.90;97.72
42633;BME280;28261;53.304;-6.284;2023-05-03T06:47:28;101887.13;;;11.89;97.62
42633;BME280;28261;53.304;-6.284;2023-05-03T06:49:32;101883.06;;;11.99;97.83
42633;BME280;28261;53.304;-6.284;2023-05-03T06:51:36;101887.50;;;11.98;97.09
42633;BME280;28261;53.304;-6.284;2023-05-03T06:53:40;101883.34;;;11.93;97.94
42633;BME280;28261;53.304;-6.284;2023-05-03T06:55:45;101890.06;;;12.00;97.54
42633;BME280;28261;53.304;-6.284;2023-05-03T06:57:49;101888.03;;;12.05;97.05
42633;BME280;28261;53.304;-6.284;2023-05-03T06:59:54;101889.06;;;12.02;96.30
42633;BME280;28261;53.304;-6.284;2023-05-03T07:02:00;101888.81;;;12.07;96.78
42633;BME280;28261;53.304;-6.284;2023-05-03T07:04:04;101881.69;;;12.08;96.63
42633;BME280;28261;53.304;-6.284;2023-05-03T07:06:09;101887.19;;;12.05;95.59
42633;BME280;28261;53.304;-6.284;2023-05-03T07:08:13;101887.84;;;12.08;96.03
42633;BME280;28261;53.304;-6.284;2023-05-03T07:10:17;101884.09;;;12.12;95.81
42633;BME280;28261;53.304;-6.284;2023-05-03T07:12:22;101884.97;;;12.13;95.43
42633;BME280;28261;53.304;-6.284;2023-05-03T07:14:29;101878.75;;;12.12;94.50
42633;BME280;28261;53.304;-6.284;2023-05-03T07:16:33;101878.28;;;12.06;94.88
42633;BME280;28261;53.304;-6.284;2023-05-03T07:18:39;101884.75;;;12.00;94.78
42633;BME280;28261;53.304;-6.284;2023-05-03T07:20:43;101880.41;;;11.99;94.87
42633;BME280;28261;53.304;-6.284;2023-05-03T07:22:47;101879.63;;;11.97;94.75
42633;BME280;28261;53.304;-6.284;2023-05-03T07:24:52;101881.53;;;11.95;94.31
42633;BME280;28261;53.304;-6.284;2023-05-03T07:26:57;101880.63;;;11.94;93.93
42633;BME280;28261;53.304;-6.284;2023-05-03T07:29:01;101876.13;;;11.96;93.64
42633;BME280;28261;53.304;-6.284;2023-05-03T07:31:06;101876.88;;;11.98;92.57
42633;BME280;28261;53.304;-6.284;2023-05-03T07:33:10;101877.84;;;11.97;92.98
42633;BME280;28261;53.304;-6.284;2023-05-03T07:35:15;101879.44;;;12.00;92.53
42633;BME280;28261;53.304;-6.284;2023-05-03T07:37:20;101877.75;;;11.99;92.13
42633;BME280;28261;53.304;-6.284;2023-05-03T07:39:24;101874.31;;;11.97;91.66
42633;BME280;28261;53.304;-6.284;2023-05-03T07:41:30;101870.16;;;11.91;92.02
42633;BME280;28261;53.304;-6.284;2023-05-03T07:43:34;101877.50;;;11.86;91.69
42633;BME280;28261;53.304;-6.284;2023-05-03T07:45:38;101873.75;;;11.90;91.55
42633;BME280;28261;53.304;-6.284;2023-05-03T07:47:42;101869.31;;;11.91;91.47
42633;BME280;28261;53.304;-6.284;2023-05-03T07:49:46;101876.19;;;11.95;91.13
42633;BME280;28261;53.304;-6.284;2023-05-03T07:51:53;101866.47;;;11.94;90.73
42633;BME280;28261;53.304;-6.284;2023-05-03T07:53:57;101875.00;;;12.00;91.11
42633;BME280;28261;53.304;-6.284;2023-05-03T07:56:01;101875.63;;;12.06;90.46
42633;BME280;28261;53.304;-6.284;2023-05-03T07:58:04;101875.53;;;12.07;90.47
42633;BME280;28261;53.304;-6.284;2023-05-03T08:00:09;101869.34;;;12.07;90.04
42633;BME280;28261;53.304;-6.284;2023-05-03T08:02:14;101880.16;;;12.04;89.74
42633;BME280;28261;53.304;-6.284;2023-05-03T08:04:18;101878.28;;;12.06;90.01
42633;BME280;28261;53.304;-6.284;2023-05-03T08:06:23;101884.63;;;12.03;90.41
42633;BME280;28261;53.304;-6.284;2023-05-03T08:08:28;101881.78;;;12.06;90.64
42633;BME280;28261;53.304;-6.284;2023-05-03T08:10:33;101881.78;;;12.06;90.42
42633;BME280;28261;53.304;-6.284;2023-05-03T08:12:39;101882.47;;;12.10;90.31
42633;BME280;28261;53.304;-6.284;2023-05-03T08:14:42;101878.75;;;12.12;90.79
42633;BME280;28261;53.304;-6.284;2023-05-03T08:16:46;101883.06;;;12.15;90.21
42633;BME280;28261;53.304;-6.284;2023-05-03T08:18:50;101871.41;;;12.17;90.39
42633;BME280;28261;53.304;-6.284;2023-05-03T08:20:54;101869.84;;;12.13;90.21
42633;BME280;28261;53.304;-6.284;2023-05-03T08:22:58;101875.16;;;12.13;90.17
42633;BME280;28261;53.304;-6.284;2023-05-03T08:25:05;101874.75;;;12.21;90.14
42633;BME280;28261;53.304;-6.284;2023-05-03T08:27:09;101872.63;;;12.28;89.91
42633;BME280;28261;53.304;-6.284;2023-05-03T08:29:13;101863.25;;;12.36;89.75
42633;BME280;28261;53.304;-6.284;2023-05-03T08:31:17;101863.88;;;12.42;89.39
42633;BME280;28261;53.304;-6.284;2023-05-03T08:33:21;101864.72;;;12.42;89.26
42633;BME280;28261;53.304;-6.284;2023-05-03T08:35:24;101862.84;;;12.44;88.70
42633;BME280;28261;53.304;-6.284;2023-05-03T08:37:29;101867.78;;;12.50;88.76
42633;BME280;28261;53.304;-6.284;2023-05-03T08:39:33;101866.16;;;12.64;88.36
42633;BME280;28261;53.304;-6.284;2023-05-03T08:41:38;101867.25;;;12.76;87.51
42633;BME280;28261;53.304;-6.284;2023-05-03T08:43:43;101860.31;;;12.73;87.71
42633;BME280;28261;53.304;-6.284;2023-05-03T08:45:48;101861.84;;;12.77;87.17
42633;BME280;28261;53.304;-6.284;2023-05-03T08:47:53;101861.75;;;12.79;87.30
42633;BME280;28261;53.304;-6.284;2023-05-03T08:49:57;101859.09;;;12.79;87.49
42633;BME280;28261;53.304;-6.284;2023-05-03T08:52:05;101859.88;;;12.81;87.35
42633;BME280;28261;53.304;-6.284;2023-05-03T08:54:08;101856.91;;;12.85;87.53
42633;BME280;28261;53.304;-6.284;2023-05-03T08:56:15;101862.06;;;12.89;87.22
42633;BME280;28261;53.304;-6.284;2023-05-03T08:58:24;101857.91;;;12.99;85.87
42633;BME280;28261;53.304;-6.284;2023-05-03T09:00:28;101860.28;;;13.03;85.37
42633;BME280;28261;53.304;-6.284;2023-05-03T09:02:33;101857.63;;;13.03;85.28
42633;BME280;28261;53.304;-6.284;2023-05-03T09:04:41;101852.22;;;13.05;84.82
42633;BME280;28261;53.304;-6.284;2023-05-03T09:06:45;101860.19;;;13.05;85.04
42633;BME280;28261;53.304;-6.284;2023-05-03T09:08:49;101858.91;;;13.12;85.25
42633;BME280;28261;53.304;-6.284;2023-05-03T09:10:54;101857.78;;;13.16;85.25
42633;BME280;28261;53.304;-6.284;2023-05-03T09:12:59;101848.75;;;13.19;85.09
42633;BME280;28261;53.304;-6.284;2023-05-03T09:15:06;101856.25;;;13.27;84.55
42633;BME280;28261;53.304;-6.284;2023-05-03T09:17:14;101856.94;;;13.30;83.80
42633;BME280;28261;53.304;-6.284;2023-05-03T09:19:18;101849.22;;;13.26;83.60
42633;BME280;28261;53.304;-6.284;2023-05-03T09:21:22;101846.72;;;13.39;84.03
42633;BME280;28261;53.304;-6.284;2023-05-03T09:23:29;101845.75;;;13.54;83.53
42633;BME280;28261;53.304;-6.284;2023-05-03T09:25:44;101850.91;;;13.71;83.33
42633;BME280;28261;53.304;-6.284;2023-05-03T09:27:59;101843.97;;;13.83;83.00
42633;BME280;28261;53.304;-6.284;2023-05-03T09:30:17;101837.19;;;13.78;81.64
42633;BME280;28261;53.304;-6.284;2023-05-03T09:32:21;101841.84;;;13.60;82.72
42633;BME280;28261;53.304;-6.284;2023-05-03T09:34:26;101847.38;;;13.57;83.84
42633;BME280;28261;53.304;-6.284;2023-05-03T09:36:44;101851.19;;;13.67;83.05
42633;BME280;28261;53.304;-6.284;2023-05-03T09:38:49;101841.97;;;13.73;83.14
42633;BME280;28261;53.304;-6.284;2023-05-03T09:40:53;101837.09;;;13.79;82.23
42633;BME280;28261;53.304;-6.284;2023-05-03T09:43:10;101830.06;;;13.78;83.13
42633;BME280;28261;53.304;-6.284;2023-05-03T09:45:22;101834.03;;;13.85;82.32
42633;BME280;28261;53.304;-6.284;2023-05-03T09:47:26;101826.63;;;13.91;82.02
42633;BME280;28261;53.304;-6.284;2023-05-03T09:49:34;101825.47;;;13.95;82.14
42633;BME280;28261;53.304;-6.284;2023-05-03T09:51:40;101830.78;;;13.95;82.46
42633;BME280;28261;53.304;-6.284;2023-05-03T09:53:44;101819.56;;;14.04;81.61
42633;BME280;28261;53.304;-6.284;2023-05-03T09:55:48;101821.84;;;13.96;81.78
42633;BME280;28261;53.304;-6.284;2023-05-03T09:57:54;101826.19;;;14.11;81.91
42633;BME280;28261;53.304;-6.284;2023-05-03T09:59:59;101818.34;;;14.22;80.31
42633;BME280;28261;53.304;-6.284;2023-05-03T10:02:14;101830.88;;;14.35;79.18
42633;BME280;28261;53.304;-6.284;2023-05-03T10:04:19;101820.28;;;14.48;78.01
42633;BME280;28261;53.304;-6.284;2023-05-03T10:06:30;101826.25;;;14.51;77.42
42633;BME280;28261;53.304;-6.284;2023-05-03T10:08:39;101825.28;;;14.67;76.95
42633;BME280;28261;53.304;-6.284;2023-05-03T10:10:45;101827.50;;;14.73;76.52
42633;BME280;28261;53.304;-6.284;2023-05-03T10:12:50;101830.13;;;14.60;75.51
42633;BME280;28261;53.304;-6.284;2023-05-03T10:14:56;101831.06;;;14.46;76.09
42633;BME280;28261;53.304;-6.284;2023-05-03T10:17:06;101831.44;;;14.40;76.79
42633;BME280;28261;53.304;-6.284;2023-05-03T10:19:17;101830.22;;;14.59;76.46
42633;BME280;28261;53.304;-6.284;2023-05-03T10:21:24;101831.13;;;14.72;76.05
42633;BME280;28261;53.304;-6.284;2023-05-03T10:23:33;101832.47;;;14.79;74.83
42633;BME280;28261;53.304;-6.284;2023-05-03T10:25:38;101834.97;;;14.68;75.44
42633;BME280;28261;53.304;-6.284;2023-05-03T10:27:50;101833.97;;;14.83;75.80
42633;BME280;28261;53.304;-6.284;2023-05-03T10:29:55;101833.69;;;15.01;75.57
42633;BME280;28261;53.304;-6.284;2023-05-03T10:31:59;101844.69;;;15.09;75.33
42633;BME280;28261;53.304;-6.284;2023-05-03T10:34:20;101836.47;;;15.12;74.78
42633;BME280;28261;53.304;-6.284;2023-05-03T10:36:24;101832.84;;;15.13;74.41
42633;BME280;28261;53.304;-6.284;2023-05-03T10:38:43;101825.78;;;15.12;73.72
42633;BME280;28261;53.304;-6.284;2023-05-03T10:40:47;101820.72;;;14.95;74.68
42633;BME280;28261;53.304;-6.284;2023-05-03T10:42:53;101813.66;;;14.94;75.23